Time;durP1;ratioP1;P1;durP2;ratioP2;P2;SDS_P1;SDS_P2;PMS_P1;PMS_P2;Temp;Humidity;BMP_temperature;BMP_pressure;BME280_temperature;BME280_humidity;BME280_pressure;Samples;Min_cycle;Max_cycle;Signal;HPM_P1;HPM_P2
2022/08/26 00:01:13;;;;;;;17.00;15.27;;;21.20;99.90;;;;;;5045326;28;20119;-78
2022/08/26 00:03:39;;;;;;;16.77;15.23;;;21.20;99.90;;;;;;5043646;28;20158;-77
2022/08/26 00:06:06;;;;;;;20.80;17.73;;;21.20;99.90;;;;;;5009290;28;20024;-78
2022/08/26 00:08:32;;;;;;;16.95;15.20;;;21.10;99.90;;;;;;5026859;28;20133;-77
2022/08/26 00:10:58;;;;;;;17.88;16.02;;;21.10;99.90;;;;;;5009548;28;20111;-78
2022/08/26 00:13:23;;;;;;;17.05;15.43;;;21.10;99.90;;;;;;5026155;28;20029;-77
2022/08/26 00:15:50;;;;;;;19.30;17.50;;;21.00;99.90;;;;;;5058405;28;20032;-78
2022/08/26 00:18:16;;;;;;;19.65;17.63;;;21.00;99.90;;;;;;5027192;28;20025;-78
2022/08/26 00:20:41;;;;;;;20.85;17.27;;;20.90;99.90;;;;;;5044315;28;20024;-77
2022/08/26 00:23:07;;;;;;;15.02;13.52;;;20.90;99.90;;;;;;5040585;28;20362;-78
2022/08/26 00:25:33;;;;;;;17.88;16.17;;;20.90;99.90;;;;;;5043502;28;20025;-76
2022/08/26 00:28:00;;;;;;;22.02;16.05;;;20.90;99.90;;;;;;5027894;28;20115;-78
2022/08/26 00:30:28;;;;;;;20.10;18.08;;;20.80;99.90;;;;;;5042581;28;20103;-78
2022/08/26 00:32:54;;;;;;;23.67;17.15;;;20.80;99.90;;;;;;5043346;28;20396;-78
2022/08/26 00:35:21;;;;;;;20.42;15.65;;;20.80;99.90;;;;;;5034904;28;20431;-78
2022/08/26 00:37:46;;;;;;;16.88;13.32;;;20.80;99.90;;;;;;5042410;28;20067;-78
2022/08/26 00:40:18;;;;;;;17.15;15.32;;;20.80;99.90;;;;;;5013410;28;20033;-77
2022/08/26 00:42:44;;;;;;;18.17;16.23;;;20.70;99.90;;;;;;5025364;28;20037;-78
2022/08/26 00:45:11;;;;;;;19.42;16.88;;;20.60;99.90;;;;;;5026720;28;20393;-77
2022/08/26 00:47:43;;;;;;;16.70;13.30;;;20.70;99.90;;;;;;5024262;28;20071;-77
2022/08/26 00:50:15;;;;;;;15.85;13.88;;;20.60;99.90;;;;;;5043421;28;20035;-78
2022/08/26 00:52:43;;;;;;;12.40;9.65;;;20.70;99.90;;;;;;5042797;28;20041;-78
2022/08/26 00:55:18;;;;;;;13.35;11.20;;;20.60;99.90;;;;;;5007222;28;20048;-77
2022/08/26 00:57:45;;;;;;;14.10;11.93;;;20.70;99.90;;;;;;5027028;28;20037;-77
2022/08/26 01:00:16;;;;;;;13.90;10.60;;;20.60;99.90;;;;;;5025860;28;20025;-78
2022/08/26 01:02:43;;;;;;;11.88;8.35;;;20.60;99.90;;;;;;5042941;28;20029;-77
2022/08/26 01:05:10;;;;;;;10.98;8.23;;;20.60;99.90;;;;;;5042730;28;20030;-78
2022/08/26 01:07:36;;;;;;;11.98;9.95;;;20.60;99.90;;;;;;5008850;28;20029;-78
2022/08/26 01:10:10;;;;;;;10.88;8.65;;;20.60;99.90;;;;;;5025435;28;20040;-77
2022/08/26 01:12:41;;;;;;;13.05;7.57;;;20.60;99.90;;;;;;5025511;28;20478;-78
2022/08/26 01:15:11;;;;;;;9.77;7.55;;;20.60;99.90;;;;;;5008584;28;20071;-78
2022/08/26 01:17:39;;;;;;;10.57;6.60;;;20.50;99.90;;;;;;5042494;28;20033;-78
2022/08/26 01:20:30;;;;;;;12.20;7.80;;;20.60;99.90;;;;;;5026473;28;20067;-78
2022/08/26 01:23:02;;;;;;;12.50;7.25;;;20.60;99.90;;;;;;5038532;28;20090;-78
2022/08/26 01:25:31;;;;;;;6.97;5.82;;;20.60;99.90;;;;;;5010346;28;20025;-78
2022/08/26 01:28:01;;;;;;;7.75;5.40;;;20.60;99.90;;;;;;5041275;28;20025;-78
2022/08/26 01:30:29;;;;;;;;;;;20.60;99.90;;;;;;5009366;28;20032;-78
2022/08/26 01:32:57;;;;;;;13.85;6.93;;;20.60;99.90;;;;;;5043026;28;19908;-78
2022/08/26 01:35:23;;;;;;;10.43;6.68;;;20.60;99.90;;;;;;5025128;28;20693;-78
2022/08/26 01:37:52;;;;;;;9.90;5.90;;;20.60;99.90;;;;;;5044518;28;20025;-78
2022/08/26 01:40:22;;;;;;;9.40;5.45;;;20.50;99.90;;;;;;5026046;28;20447;-78
2022/08/26 01:42:48;;;;;;;8.48;3.85;;;20.60;99.90;;;;;;5025587;28;20030;-78
2022/08/26 01:45:20;;;;;;;7.13;5.15;;;20.60;99.90;;;;;;5012390;28;20520;-78
2022/08/26 01:47:48;;;;;;;7.18;5.10;;;20.60;99.90;;;;;;5025883;28;20036;-78
2022/08/26 01:50:19;;;;;;;7.20;3.38;;;20.60;99.90;;;;;;5042802;28;20159;-77
2022/08/26 01:52:47;;;;;;;7.10;4.07;;;20.60;99.90;;;;;;5023811;28;20029;-78
2022/08/26 01:55:16;;;;;;;6.43;3.40;;;20.60;99.90;;;;;;5044078;28;20118;-78
2022/08/26 01:57:47;;;;;;;7.97;3.85;;;20.60;99.90;;;;;;5043579;28;20358;-78
2022/08/26 02:00:14;;;;;;;8.95;4.07;;;20.60;99.90;;;;;;5042769;28;20470;-78
2022/08/26 02:02:46;;;;;;;7.03;3.85;;;20.70;99.90;;;;;;5024563;28;20052;-79
2022/08/26 02:05:20;;;;;;;7.63;3.45;;;20.60;99.90;;;;;;5024514;28;20068;-79
2022/08/26 02:07:47;;;;;;;8.70;4.15;;;20.60;99.90;;;;;;5043160;28;20465;-78
2022/08/26 02:10:14;;;;;;;9.23;4.28;;;20.70;99.90;;;;;;5024349;28;20029;-77
2022/08/26 02:12:40;;;;;;;6.90;4.10;;;20.70;99.90;;;;;;5025119;28;20394;-78
2022/08/26 02:15:09;;;;;;;5.43;3.03;;;20.70;99.90;;;;;;5030268;28;20079;-77
2022/08/26 02:17:42;;;;;;;8.68;3.35;;;20.70;99.90;;;;;;5013721;28;20681;-78
2022/08/26 02:20:11;;;;;;;6.80;3.33;;;20.70;99.90;;;;;;5027714;28;20034;-77
2022/08/26 02:22:37;;;;;;;4.13;1.77;;;20.70;99.90;;;;;;5023692;28;20355;-78
2022/08/26 02:25:25;;;;;;;5.68;2.65;;;20.70;99.90;;;;;;5045817;28;20041;-78
2022/08/26 02:27:52;;;;;;;6.40;2.90;;;20.70;99.90;;;;;;5019455;28;20378;-78
2022/08/26 02:30:25;;;;;;;7.75;3.05;;;20.70;99.90;;;;;;5045632;28;20025;-78
2022/08/26 02:32:50;;;;;;;8.15;3.22;;;20.60;99.90;;;;;;5045397;28;20117;-78
2022/08/26 02:35:19;;;;;;;4.78;2.45;;;20.60;99.90;;;;;;5027890;28;20099;-77
2022/08/26 02:37:45;;;;;;;3.70;1.67;;;20.60;99.90;;;;;;5047998;28;20033;-77
2022/08/26 02:40:13;;;;;;;8.07;2.75;;;20.50;99.90;;;;;;5028194;28;20041;-78
2022/08/26 02:42:39;;;;;;;5.72;2.40;;;20.50;99.90;;;;;;5027672;28;20063;-78
2022/08/26 02:45:05;;;;;;;6.97;3.05;;;20.50;99.90;;;;;;5027427;28;20065;-78
2022/08/26 02:47:32;;;;;;;5.53;2.67;;;20.40;99.90;;;;;;5046855;28;20432;-78
2022/08/26 02:49:58;;;;;;;5.22;1.75;;;20.40;99.90;;;;;;5045835;28;20110;-77
2022/08/26 02:52:24;;;;;;;4.60;2.42;;;20.40;99.90;;;;;;5028678;28;20110;-78
2022/08/26 02:54:50;;;;;;;4.78;2.20;;;20.40;99.90;;;;;;5043155;28;20041;-78
2022/08/26 02:57:16;;;;;;;4.25;1.52;;;20.30;99.90;;;;;;5046274;28;20112;-78
2022/08/26 02:59:42;;;;;;;6.30;2.38;;;20.30;99.90;;;;;;5045630;28;20025;-79
2022/08/26 03:02:09;;;;;;;5.32;1.63;;;20.30;99.90;;;;;;5046923;28;20491;-77
2022/08/26 03:04:35;;;;;;;4.63;1.30;;;20.30;99.90;;;;;;5045470;28;20528;-77
2022/08/26 03:07:01;;;;;;;5.75;1.50;;;20.30;99.90;;;;;;5027729;28;20025;-78
2022/08/26 03:09:27;;;;;;;3.30;1.02;;;20.20;99.90;;;;;;5047772;28;20032;-78
2022/08/26 03:11:54;;;;;;;4.40;1.60;;;20.20;99.90;;;;;;5029745;28;20449;-78
2022/08/26 03:14:20;;;;;;;5.53;1.67;;;20.20;99.90;;;;;;5027725;28;20515;-78
2022/08/26 03:16:46;;;;;;;5.32;1.77;;;20.20;99.90;;;;;;5027748;28;20021;-78
2022/08/26 03:19:11;;;;;;;2.38;1.10;;;20.20;99.90;;;;;;5061922;28;20025;-78
2022/08/26 03:21:38;;;;;;;5.47;1.25;;;20.20;99.90;;;;;;5059963;28;20492;-78
2022/08/26 03:24:04;;;;;;;2.40;0.98;;;20.20;99.90;;;;;;5025948;28;20366;-79
2022/08/26 03:26:29;;;;;;;4.47;1.00;;;20.20;99.90;;;;;;5025499;28;20040;-78
2022/08/26 03:31:40;;;;;;;5.40;1.95;;;20.10;99.90;;;;;;5046867;28;20591;-79
2022/08/26 03:34:06;;;;;;;5.20;1.80;;;20.10;99.90;;;;;;5045729;28;20382;-78
2022/08/26 03:36:32;;;;;;;5.93;1.65;;;20.10;99.90;;;;;;5027144;28;20128;-79
2022/08/26 03:38:58;;;;;;;6.78;1.95;;;20.10;99.90;;;;;;5041912;28;20034;-79
2022/08/26 03:41:23;;;;;;;5.05;1.58;;;20.00;99.90;;;;;;5044852;28;20057;-77
2022/08/26 03:43:49;;;;;;;4.05;1.20;;;20.00;99.90;;;;;;5026487;28;20083;-78
2022/08/26 03:46:16;;;;;;;4.38;1.10;;;20.00;99.90;;;;;;5045593;28;20032;-77
2022/08/26 03:48:42;;;;;;;5.65;1.40;;;20.00;99.90;;;;;;5026090;28;20020;-78
2022/08/26 03:51:13;;;;;;;5.32;1.08;;;19.90;99.90;;;;;;5014983;28;20056;-77
2022/08/26 03:53:39;;;;;;;5.53;1.30;;;20.00;99.90;;;;;;5026088;28;20025;-79
2022/08/26 03:56:05;;;;;;;5.32;0.82;;;19.90;99.90;;;;;;5043285;28;20037;-78
2022/08/26 03:58:31;;;;;;;4.72;1.10;;;19.90;99.90;;;;;;5062323;28;20512;-77
2022/08/26 04:00:58;;;;;;;3.92;0.90;;;19.90;99.90;;;;;;5013849;28;20461;-78
2022/08/26 04:06:09;;;;;;;3.97;0.88;;;20.00;99.90;;;;;;5025970;28;20028;-78
2022/08/26 04:08:35;;;;;;;7.32;1.05;;;20.00;99.90;;;;;;5044945;28;20040;-78
2022/08/26 04:11:01;;;;;;;5.40;0.93;;;20.00;99.90;;;;;;5025986;28;20115;-78
2022/08/26 04:13:27;;;;;;;5.82;1.00;;;19.90;99.90;;;;;;5044230;28;20113;-78
2022/08/26 04:15:53;;;;;;;3.65;0.70;;;19.90;99.90;;;;;;5024789;28;20028;-79
2022/08/26 04:18:19;;;;;;;3.58;0.60;;;19.90;99.90;;;;;;5025565;28;20025;-77
2022/08/26 04:20:46;;;;;;;4.30;0.60;;;19.90;99.90;;;;;;5046619;28;20104;-78
2022/08/26 04:23:12;;;;;;;4.43;0.70;;;20.00;99.90;;;;;;5021462;28;20539;-77
2022/08/26 04:25:38;;;;;;;3.15;0.60;;;20.00;99.90;;;;;;5045427;28;20025;-78
2022/08/26 04:28:05;;;;;;;4.03;0.57;;;20.00;99.90;;;;;;5026005;28;20036;-78
2022/08/26 04:30:31;;;;;;;4.03;0.77;;;20.00;99.90;;;;;;5038228;28;20036;-77
2022/08/26 04:32:57;;;;;;;2.85;0.63;;;20.00;99.90;;;;;;5044631;28;20032;-78
2022/08/26 04:35:23;;;;;;;3.53;0.60;;;20.00;99.90;;;;;;5044472;28;20115;-78
2022/08/26 04:37:50;;;;;;;2.58;0.77;;;20.00;99.90;;;;;;5024829;28;20035;-79
2022/08/26 04:40:16;;;;;;;6.38;0.70;;;20.00;99.90;;;;;;5041869;28;20037;-78
2022/08/26 04:42:41;;;;;;;2.67;0.63;;;20.00;99.90;;;;;;5011936;28;20028;-78
2022/08/26 04:45:07;;;;;;;5.18;0.82;;;20.00;99.90;;;;;;5027616;28;20541;-78
2022/08/26 04:47:33;;;;;;;3.55;0.50;;;20.00;99.90;;;;;;5025434;28;20032;-78
2022/08/26 04:49:59;;;;;;;5.88;0.65;;;20.00;99.90;;;;;;5025015;28;20029;-79
2022/08/26 04:52:25;;;;;;;5.00;0.50;;;20.00;99.90;;;;;;5043756;28;20109;-78
2022/08/26 04:54:51;;;;;;;3.10;0.50;;;20.00;99.90;;;;;;5023537;28;20106;-78
2022/08/26 04:57:17;;;;;;;1.67;0.40;;;20.00;99.90;;;;;;5059207;28;20473;-78
2022/08/26 04:59:43;;;;;;;1.52;0.32;;;20.00;99.90;;;;;;5044436;28;20397;-78
2022/08/26 05:02:08;;;;;;;3.05;0.40;;;20.10;99.90;;;;;;5059806;28;20025;-78
2022/08/26 05:04:34;;;;;;;3.80;0.60;;;20.10;99.90;;;;;;5043635;28;20087;-77
2022/08/26 05:07:01;;;;;;;4.05;0.45;;;20.10;99.90;;;;;;5023987;28;20025;-78
2022/08/26 05:09:26;;;;;;;5.15;0.50;;;20.10;99.90;;;;;;5009914;28;20021;-79
2022/08/26 05:11:52;;;;;;;3.30;0.40;;;20.10;99.90;;;;;;5056284;28;20036;-78
2022/08/26 05:14:19;;;;;;;5.93;0.50;;;20.10;99.90;;;;;;5044848;28;20462;-79
2022/08/26 05:16:45;;;;;;;5.97;0.35;;;20.10;99.90;;;;;;5008096;28;20033;-78
2022/08/26 05:19:11;;;;;;;4.93;0.43;;;20.10;99.90;;;;;;5041404;28;20473;-79
2022/08/26 05:21:37;;;;;;;3.67;0.38;;;20.10;99.90;;;;;;5026953;28;20039;-78
2022/08/26 05:24:04;;;;;;;6.82;0.40;;;20.10;99.90;;;;;;5039956;28;20485;-80
2022/08/26 05:26:31;;;;;;;4.00;0.50;;;20.20;99.90;;;;;;5023727;28;20120;-76
2022/08/26 05:28:57;;;;;;;5.20;0.52;;;20.10;99.90;;;;;;5042395;28;20025;-79
2022/08/26 05:31:26;;;;;;;3.28;0.40;;;20.10;99.90;;;;;;5044070;28;20553;-79
2022/08/26 05:33:52;;;;;;;3.78;0.40;;;20.10;99.90;;;;;;5040194;28;20036;-78
2022/08/26 05:36:22;;;;;;;4.18;0.40;;;20.20;99.90;;;;;;5025130;28;20029;-78
2022/08/26 05:38:51;;;;;;;2.45;0.55;;;20.10;99.90;;;;;;5042647;28;20501;-78
2022/08/26 05:41:27;;;;;;;3.28;0.47;;;20.20;99.90;;;;;;5024161;28;20075;-77
2022/08/26 05:43:55;;;;;;;3.47;0.50;;;20.20;99.90;;;;;;5026768;28;20047;-78
2022/08/26 05:46:21;;;;;;;5.72;0.50;;;20.20;99.90;;;;;;5024614;28;20028;-78
2022/08/26 05:48:47;;;;;;;3.47;0.40;;;20.20;99.90;;;;;;5046458;28;20409;-78
2022/08/26 05:51:13;;;;;;;4.32;0.68;;;20.20;99.90;;;;;;5046816;28;20017;-79
2022/08/26 05:53:41;;;;;;;5.65;0.50;;;20.20;99.90;;;;;;5027536;28;20045;-77
2022/08/26 05:56:08;;;;;;;3.85;0.40;;;20.20;99.90;;;;;;5028772;28;20021;-78
2022/08/26 05:58:35;;;;;;;5.18;0.20;;;20.20;99.90;;;;;;5027724;28;20156;-78
2022/08/26 06:01:02;;;;;;;5.50;0.30;;;20.20;99.90;;;;;;5027166;28;20029;-79
2022/08/26 06:03:30;;;;;;;2.53;0.30;;;20.30;99.90;;;;;;5026386;28;20133;-78
2022/08/26 06:05:56;;;;;;;3.78;0.30;;;20.30;99.90;;;;;;5028428;28;20058;-79
2022/08/26 06:08:22;;;;;;;3.17;0.35;;;20.30;99.90;;;;;;5044730;28;20025;-78
2022/08/26 06:10:58;;;;;;;1.75;0.20;;;20.30;99.90;;;;;;5046147;28;20021;-79
2022/08/26 06:13:28;;;;;;;3.88;0.32;;;20.40;99.90;;;;;;5011759;28;20032;-78
2022/08/26 06:15:55;;;;;;;4.75;0.30;;;20.30;99.90;;;;;;5014864;28;20129;-78
2022/08/26 06:18:23;;;;;;;2.00;0.30;;;20.40;99.90;;;;;;5026497;28;20043;-78
2022/08/26 06:20:50;;;;;;;4.80;0.40;;;20.40;99.90;;;;;;5026511;28;20120;-78
2022/08/26 06:26:03;;;;;;;4.72;0.30;;;20.50;99.90;;;;;;5047067;28;20079;-79
2022/08/26 06:28:28;;;;;;;2.45;0.45;;;20.40;99.90;;;;;;5026142;28;20052;-79
2022/08/26 06:30:54;;;;;;;3.78;0.40;;;20.50;99.90;;;;;;5015460;28;20056;-78
2022/08/26 06:33:21;;;;;;;7.13;0.50;;;20.50;99.90;;;;;;5061396;28;20032;-78
2022/08/26 06:35:49;;;;;;;3.60;0.30;;;20.50;99.90;;;;;;5045290;28;20104;-79
2022/08/26 06:38:14;;;;;;;1.70;0.22;;;20.50;99.90;;;;;;5031152;28;20108;-78
2022/08/26 06:40:46;;;;;;;2.40;0.30;;;20.60;99.90;;;;;;5014408;28;20466;-78
2022/08/26 06:43:12;;;;;;;5.07;0.40;;;20.60;99.90;;;;;;5045992;28;20048;-78
2022/08/26 06:45:38;;;;;;;8.35;0.73;;;20.60;99.90;;;;;;5043485;28;20558;-78
2022/08/26 06:48:05;;;;;;;4.15;0.30;;;20.60;99.90;;;;;;5026989;28;20488;-78
2022/08/26 06:50:32;;;;;;;3.33;0.30;;;20.60;99.90;;;;;;5010744;28;20032;-78
2022/08/26 06:52:58;;;;;;;3.28;0.40;;;20.70;99.90;;;;;;5044634;28;20028;-79
2022/08/26 06:55:24;;;;;;;2.10;0.22;;;20.80;99.90;;;;;;5028968;28;20021;-79
2022/08/26 06:57:49;;;;;;;3.85;0.30;;;20.80;99.90;;;;;;5026807;28;20492;-78
2022/08/26 07:00:17;;;;;;;5.57;0.32;;;20.80;99.90;;;;;;5045238;28;20021;-79
2022/08/26 07:02:43;;;;;;;5.07;0.30;;;20.80;99.90;;;;;;5010178;28;20042;-78
2022/08/26 07:05:09;;;;;;;4.22;0.35;;;20.80;99.90;;;;;;5043930;28;20078;-78
2022/08/26 07:07:34;;;;;;;2.72;0.20;;;20.80;99.90;;;;;;5013644;28;20036;-80
2022/08/26 07:10:00;;;;;;;1.67;0.30;;;20.80;99.90;;;;;;5045379;28;20032;-78
2022/08/26 07:12:26;;;;;;;6.82;0.35;;;20.90;99.90;;;;;;5026734;28;20098;-77
2022/08/26 07:14:51;;;;;;;4.68;0.50;;;20.90;99.90;;;;;;5046145;28;20548;-79
2022/08/26 07:17:18;;;;;;;3.83;0.40;;;20.90;99.90;;;;;;5027813;28;20226;-80
2022/08/26 07:19:44;;;;;;;3.88;0.32;;;21.10;99.90;;;;;;5045558;28;20051;-79
2022/08/26 07:22:11;;;;;;;4.93;0.32;;;21.00;99.90;;;;;;5012057;28;20029;-79
2022/08/26 07:24:40;;;;;;;3.65;0.30;;;21.00;99.90;;;;;;5011141;28;20090;-79
2022/08/26 07:27:08;;;;;;;4.90;0.32;;;21.00;99.90;;;;;;5026479;28;20084;-78
2022/08/26 07:29:35;;;;;;;3.95;0.30;;;21.10;99.90;;;;;;5026883;28;20117;-79
2022/08/26 07:32:01;;;;;;;5.40;0.30;;;21.20;99.90;;;;;;5013267;28;20040;-78
2022/08/26 07:34:27;;;;;;;6.53;0.30;;;21.20;99.90;;;;;;5025560;28;20440;-79
2022/08/26 07:36:53;;;;;;;5.95;0.38;;;21.20;99.90;;;;;;5023355;28;20033;-78
2022/08/26 07:39:19;;;;;;;3.55;0.40;;;21.10;99.90;;;;;;5027804;28;20068;-80
2022/08/26 07:41:46;;;;;;;4.45;0.40;;;21.10;99.90;;;;;;5044639;28;20508;-80
2022/08/26 07:44:12;;;;;;;2.08;0.20;;;21.10;99.90;;;;;;5026160;28;20091;-80
2022/08/26 07:46:39;;;;;;;3.08;0.30;;;21.20;99.90;;;;;;5023753;28;20031;-78
2022/08/26 07:49:04;;;;;;;3.95;0.60;;;21.20;99.90;;;;;;5026315;28;20037;-80
2022/08/26 07:51:30;;;;;;;4.70;0.30;;;21.20;99.90;;;;;;5027853;28;20092;-79
2022/08/26 07:53:56;;;;;;;5.88;0.85;;;21.40;99.90;;;;;;5026660;28;20051;-80
2022/08/26 07:56:24;;;;;;;4.72;0.30;;;21.50;99.90;;;;;;5014283;28;20568;-78
2022/08/26 07:58:51;;;;;;;4.60;0.30;;;21.50;99.90;;;;;;5041792;28;20048;-77
2022/08/26 08:01:22;;;;;;;3.08;0.20;;;21.60;99.90;;;;;;5008771;28;20120;-79
2022/08/26 08:03:52;;;;;;;1.50;0.20;;;21.80;99.90;;;;;;5025976;28;20043;-79
2022/08/26 08:06:24;;;;;;;3.30;0.20;;;21.80;99.90;;;;;;5026863;28;20068;-81
2022/08/26 08:08:50;;;;;;;4.50;0.35;;;21.80;99.90;;;;;;5025581;28;20052;-77
2022/08/26 08:11:19;;;;;;;2.20;0.20;;;21.90;99.90;;;;;;5027812;28;20034;-80
2022/08/26 08:13:45;;;;;;;3.97;0.20;;;21.90;99.90;;;;;;5025284;28;20117;-79
2022/08/26 08:16:11;;;;;;;2.90;0.20;;;21.80;99.90;;;;;;5023674;28;20112;-80
2022/08/26 08:18:37;;;;;;;3.70;0.30;;;22.00;99.90;;;;;;5025522;28;20426;-80
2022/08/26 08:21:03;;;;;;;1.83;0.20;;;22.00;99.90;;;;;;5023957;28;20033;-77
2022/08/26 08:23:30;;;;;;;1.50;0.20;;;22.00;99.90;;;;;;5022506;28;20481;-80
2022/08/26 08:26:00;;;;;;;1.58;0.20;;;22.10;99.90;;;;;;5025572;28;20389;-80
2022/08/26 08:28:26;;;;;;;2.15;0.20;;;22.00;99.90;;;;;;5042183;28;20491;-80
2022/08/26 08:30:52;;;;;;;4.47;0.20;;;21.90;99.90;;;;;;5023834;28;20025;-80
2022/08/26 08:33:17;;;;;;;1.70;0.20;;;22.20;99.90;;;;;;5026869;28;20060;-80
2022/08/26 08:35:44;;;;;;;2.67;0.20;;;22.30;99.90;;;;;;5006929;28;20060;-79
2022/08/26 08:38:10;;;;;;;1.40;0.30;;;22.30;99.90;;;;;;5025162;28;20468;-80
2022/08/26 08:40:40;;;;;;;2.03;0.20;;;22.30;99.90;;;;;;5023994;28;20072;-80
2022/08/26 08:43:38;;;;;;;3.28;0.30;;;22.40;99.90;;;;;;5024992;28;20040;-79
2022/08/26 08:46:15;;;;;;;1.20;0.30;;;22.40;99.90;;;;;;5035577;28;20506;-78
2022/08/26 08:48:49;;;;;;;2.40;0.20;;;22.40;99.90;;;;;;5044206;28;20064;-80
2022/08/26 08:51:38;;;;;;;1.92;0.20;;;22.50;99.90;;;;;;5024433;28;20040;-80
2022/08/26 08:54:05;;;;;;;2.20;0.20;;;22.50;99.90;;;;;;5007099;28;20474;-81
2022/08/26 08:56:38;;;;;;;1.92;0.20;;;22.60;99.90;;;;;;5026404;28;20024;-80
2022/08/26 08:59:09;;;;;;;1.60;0.20;;;22.70;99.90;;;;;;5008285;28;20504;-77
2022/08/26 09:01:49;;;;;;;2.75;0.20;;;22.80;99.90;;;;;;5042242;28;20135;-81
2022/08/26 09:04:42;;;;;;;3.05;0.20;;;22.90;99.90;;;;;;5013796;28;20397;-79
2022/08/26 09:07:12;;;;;;;2.53;0.20;;;22.90;99.90;;;;;;5007774;28;20037;-81
2022/08/26 09:09:53;;;;;;;3.17;0.20;;;22.80;99.90;;;;;;5040620;28;20055;-79
2022/08/26 09:12:23;;;;;;;3.20;0.30;;;22.60;99.90;;;;;;5022464;28;20021;-79
2022/08/26 09:14:50;;;;;;;2.50;0.20;;;22.70;99.90;;;;;;5011680;28;20017;-80
2022/08/26 09:17:48;;;;;;;2.25;0.22;;;23.00;99.90;;;;;;5012525;28;20363;-81
2022/08/26 09:20:28;;;;;;;2.05;0.20;;;23.00;99.90;;;;;;5021862;28;20044;-80
2022/08/26 09:22:55;;;;;;;2.60;0.30;;;22.90;99.90;;;;;;5022475;28;20040;-80
2022/08/26 09:25:21;;;;;;;3.08;0.40;;;22.90;99.90;;;;;;5046710;28;20367;-80
2022/08/26 09:27:49;;;;;;;2.55;0.22;;;22.80;99.90;;;;;;5048601;28;20044;-80
2022/08/26 09:30:29;;;;;;;3.70;0.32;;;22.80;99.90;;;;;;5044978;28;20395;-81
2022/08/26 09:33:01;;;;;;;1.92;0.30;;;22.70;99.90;;;;;;5015238;28;20496;-79
2022/08/26 09:35:36;;;;;;;2.25;0.20;;;22.70;99.90;;;;;;5046347;28;20142;-79
2022/08/26 09:38:21;;;;;;;1.70;0.30;;;22.70;99.90;;;;;;5029647;28;20025;-79
2022/08/26 09:40:56;;;;;;;1.67;0.30;;;22.80;99.90;;;;;;5048784;28;20103;-80
2022/08/26 09:43:22;;;;;;;1.65;0.55;;;22.80;99.90;;;;;;5027666;28;20029;-78
2022/08/26 09:45:55;;;;;;;1.80;0.20;;;22.70;99.90;;;;;;5028846;28;20033;-78
2022/08/26 09:48:25;;;;;;;3.90;0.20;;;22.60;99.90;;;;;;5028319;28;20212;-78
2022/08/26 09:51:00;;;;;;;4.40;0.30;;;22.70;99.90;;;;;;5043778;28;20033;-78
2022/08/26 09:53:33;;;;;;;4.60;0.30;;;22.60;99.90;;;;;;5026964;28;20025;-78
2022/08/26 09:56:25;;;;;;;2.50;0.25;;;22.40;99.90;;;;;;5046794;28;20477;-80
2022/08/26 09:58:51;;;;;;;3.83;0.50;;;22.40;99.90;;;;;;5024532;28;20100;-78
2022/08/26 10:01:41;;;;;;;1.23;0.22;;;22.50;99.90;;;;;;5046842;28;20031;-80
2022/08/26 10:04:22;;;;;;;2.25;0.20;;;22.70;99.90;;;;;;5011946;28;20139;-79
2022/08/26 10:07:00;;;;;;;2.70;0.20;;;22.70;99.90;;;;;;5031285;28;20477;-79
2022/08/26 10:09:28;;;;;;;2.22;0.20;;;22.70;99.90;;;;;;5010141;28;20030;-78
2022/08/26 10:12:07;;;;;;;2.05;0.30;;;22.90;99.90;;;;;;5045198;28;20351;-79
2022/08/26 10:14:49;;;;;;;3.35;0.30;;;22.90;99.90;;;;;;5044856;28;20021;-80
2022/08/26 10:17:40;;;;;;;2.65;0.30;;;22.80;99.90;;;;;;5011140;28;20030;-80
2022/08/26 10:20:26;;;;;;;2.63;0.30;;;22.80;99.90;;;;;;5046527;28;20086;-77
2022/08/26 10:23:04;;;;;;;4.72;0.25;;;22.60;99.90;;;;;;5044472;28;20056;-78
2022/08/26 10:25:47;;;;;;;5.25;0.35;;;22.40;99.90;;;;;;5060754;28;20041;-80
2022/08/26 10:28:41;;;;;;;8.00;0.95;;;22.60;99.90;;;;;;5045115;28;20108;-81
2022/08/26 10:31:23;;;;;;;1.92;0.20;;;22.60;99.90;;;;;;5045129;28;20040;-78
2022/08/26 10:33:49;;;;;;;2.83;0.22;;;22.60;99.90;;;;;;5027758;28;20029;-79
2022/08/26 10:39:06;;;;;;;4.00;0.20;;;22.90;99.90;;;;;;5048663;28;20110;-77
2022/08/26 10:41:37;;;;;;;2.25;0.30;;;22.80;99.90;;;;;;5027179;28;20048;-80
2022/08/26 10:44:07;;;;;;;1.77;0.20;;;22.70;99.90;;;;;;5045730;28;20061;-79
2022/08/26 10:46:48;;;;;;;3.70;0.30;;;22.90;99.90;;;;;;5046215;28;20032;-78
2022/08/26 10:49:16;;;;;;;4.45;0.30;;;23.20;99.90;;;;;;5027861;28;20029;-80
2022/08/26 10:51:59;;;;;;;2.00;0.30;;;23.40;99.90;;;;;;5048014;28;20389;-77
2022/08/26 10:54:44;;;;;;;4.55;0.60;;;23.50;99.90;;;;;;5044967;28;20033;-79
2022/08/26 10:57:31;;;;;;;2.53;0.30;;;23.50;99.90;;;;;;5045086;28;20021;-81
2022/08/26 11:03:02;;;;;;;2.35;0.30;;;23.40;99.90;;;;;;5025170;28;20036;-80
2022/08/26 11:05:28;;;;;;;1.60;0.32;;;23.10;99.90;;;;;;5044992;28;20032;-80
2022/08/26 11:08:20;;;;;;;3.63;0.30;;;22.90;99.90;;;;;;5059708;28;20385;-77
2022/08/26 11:10:55;;;;;;;5.30;0.40;;;23.20;99.90;;;;;;5026101;28;20090;-77
2022/08/26 11:13:57;;;;;;;2.00;0.30;;;23.20;99.90;;;;;;5027754;28;20029;-78
2022/08/26 11:16:45;;;;;;;3.60;0.30;;;23.40;99.90;;;;;;5025662;28;20037;-77
2022/08/26 11:19:40;;;;;;;2.30;0.40;;;23.30;99.90;;;;;;5025596;28;20075;-80
2022/08/26 11:22:31;;;;;;;4.55;0.43;;;23.00;99.90;;;;;;5024540;28;20071;-80
2022/08/26 11:24:57;;;;;;;3.05;0.30;;;22.90;99.90;;;;;;5016986;28;20047;-79
2022/08/26 11:27:35;;;;;;;2.90;0.30;;;22.70;99.90;;;;;;5026162;28;20055;-79
2022/08/26 11:30:03;;;;;;;2.10;0.20;;;22.80;99.90;;;;;;5041778;28;20032;-81
2022/08/26 11:32:38;;;;;;;1.52;0.20;;;22.70;99.90;;;;;;5013603;28;20477;-80
2022/08/26 11:35:10;;;;;;;1.75;0.30;;;22.60;99.90;;;;;;5026993;28;20029;-79
2022/08/26 11:37:44;;;;;;;1.83;0.30;;;22.70;99.90;;;;;;5044300;28;20078;-80
2022/08/26 11:40:23;;;;;;;2.58;0.30;;;22.80;99.90;;;;;;5009076;28;20110;-78
2022/08/26 11:42:54;;;;;;;4.90;0.40;;;22.90;99.90;;;;;;5026062;28;20029;-78
2022/08/26 11:45:29;;;;;;;2.58;0.22;;;23.00;99.90;;;;;;5042063;28;20052;-78
2022/08/26 11:47:55;;;;;;;1.45;0.20;;;23.00;99.90;;;;;;5026705;28;20544;-79
2022/08/26 11:50:26;;;;;;;1.65;0.20;;;23.00;99.90;;;;;;5012992;28;20125;-80
2022/08/26 11:52:53;;;;;;;2.75;0.30;;;22.90;99.90;;;;;;5043761;28;20104;-80
2022/08/26 11:55:19;;;;;;;4.15;0.20;;;22.80;99.90;;;;;;5045291;28;20036;-77
2022/08/26 11:57:56;;;;;;;3.58;0.38;;;22.70;99.90;;;;;;5045409;28;20041;-78
2022/08/26 12:00:47;;;;;;;1.55;0.30;;;22.50;99.90;;;;;;5027871;28;20108;-79
2022/08/26 12:03:42;;;;;;;1.40;0.40;;;22.50;99.90;;;;;;5024925;28;20413;-80
2022/08/26 12:06:23;;;;;;;2.72;0.20;;;22.50;99.90;;;;;;5003397;28;20036;-78
2022/08/26 12:08:52;;;;;;;3.58;0.22;;;22.40;99.90;;;;;;5025058;28;20381;-81
2022/08/26 12:11:25;;;;;;;2.05;0.20;;;22.30;99.90;;;;;;5009405;28;20388;-83
2022/08/26 12:14:00;;;;;;;3.70;0.20;;;22.30;99.90;;;;;;5026933;28;20091;-79
2022/08/26 12:16:38;;;;;;;4.13;0.20;;;22.10;99.90;;;;;;5009058;28;20029;-80
2022/08/26 12:19:26;;;;;;;1.17;0.20;;;22.10;99.90;;;;;;5024455;28;20017;-79
2022/08/26 12:22:12;;;;;;;1.98;0.10;;;22.10;99.90;;;;;;5041040;28;20473;-80
2022/08/26 12:24:45;;;;;;;0.85;0.20;;;22.00;99.90;;;;;;5042974;28;20520;-80
2022/08/26 12:27:23;;;;;;;2.13;0.20;;;22.00;99.90;;;;;;5006997;28;20382;-80
2022/08/26 12:30:01;;;;;;;2.22;0.20;;;22.10;99.90;;;;;;5024146;28;20037;-80
2022/08/26 12:32:27;;;;;;;1.58;0.25;;;22.00;99.90;;;;;;5026274;28;20074;-81
2022/08/26 12:34:53;;;;;;;2.95;0.20;;;22.00;99.90;;;;;;5024751;28;20025;-80
2022/08/26 12:37:19;;;;;;;2.78;0.20;;;22.00;99.90;;;;;;5011656;28;21079;-80
2022/08/26 12:39:47;;;;;;;1.67;0.10;;;21.80;99.90;;;;;;5022577;28;20178;-79
2022/08/26 12:42:16;;;;;;;2.63;0.15;;;21.80;99.90;;;;;;5042570;28;20500;-79
2022/08/26 12:44:43;;;;;;;2.63;0.20;;;21.70;99.90;;;;;;5023531;28;20045;-76
2022/08/26 12:47:14;;;;;;;3.08;0.20;;;21.80;99.90;;;;;;5041670;28;20064;-74
2022/08/26 12:49:42;;;;;;;2.45;0.20;;;21.60;99.90;;;;;;5026077;28;20028;-78
2022/08/26 12:52:28;;;;;;;2.10;0.20;;;21.50;99.90;;;;;;5041704;28;20037;-77
2022/08/26 12:54:59;;;;;;;3.13;0.20;;;21.50;99.90;;;;;;5009007;28;20033;-77
2022/08/26 12:57:29;;;;;;;1.35;0.20;;;21.50;99.90;;;;;;5041279;28;20125;-75
2022/08/26 13:00:22;;;;;;;2.30;0.10;;;21.50;99.90;;;;;;5008381;28;20520;-76
2022/08/26 13:02:47;;;;;;;3.92;0.20;;;21.70;99.90;;;;;;5025617;28;20131;-78
2022/08/26 13:05:26;;;;;;;2.58;0.30;;;21.70;99.90;;;;;;5045636;28;20144;-75
2022/08/26 13:08:28;;;;;;;2.00;0.20;;;21.80;99.90;;;;;;5041008;28;20022;-76
2022/08/26 13:11:25;;;;;;;1.40;0.10;;;21.90;99.90;;;;;;4930468;29;20031;-78
2022/08/26 13:14:06;;;;;;;2.13;0.20;;;22.10;99.90;;;;;;4930294;29;20218;-77
2022/08/26 13:16:32;;;;;;;1.13;0.10;;;22.40;99.90;;;;;;4946932;29;20121;-76